sensor_id;sensor_type;location;lat;lon;timestamp;P1;durP1;ratioP1;P2;durP2;ratioP2
76712;SDS011;65640;43.154;25.658;2024-01-30T00:02:15;32.58;;;13.98;;
76712;SDS011;65640;43.154;25.658;2024-01-30T00:04:41;32.28;;;14.95;;
76712;SDS011;65640;43.154;25.658;2024-01-30T00:07:06;21.95;;;11.10;;
76712;SDS011;65640;43.154;25.658;2024-01-30T00:09:32;15.68;;;9.00;;
76712;SDS011;65640;43.154;25.658;2024-01-30T00:11:58;14.20;;;7.65;;
76712;SDS011;65640;43.154;25.658;2024-01-30T00:14:23;14.00;;;6.55;;
76712;SDS011;65640;43.154;25.658;2024-01-30T00:16:50;11.55;;;7.20;;
76712;SDS011;65640;43.154;25.658;2024-01-30T00:19:15;10.57;;;6.47;;
76712;SDS011;65640;43.154;25.658;2024-01-30T00:21:41;13.15;;;7.43;;
76712;SDS011;65640;43.154;25.658;2024-01-30T00:24:06;14.70;;;6.53;;
76712;SDS011;65640;43.154;25.658;2024-01-30T00:26:32;14.93;;;7.53;;
76712;SDS011;65640;43.154;25.658;2024-01-30T00:28:57;16.00;;;7.75;;
76712;SDS011;65640;43.154;25.658;2024-01-30T00:31:22;18.00;;;8.18;;
76712;SDS011;65640;43.154;25.658;2024-01-30T00:33:48;22.00;;;10.02;;
76712;SDS011;65640;43.154;25.658;2024-01-30T00:36:13;17.23;;;7.93;;
76712;SDS011;65640;43.154;25.658;2024-01-30T00:38:39;10.38;;;6.88;;
76712;SDS011;65640;43.154;25.658;2024-01-30T00:41:08;13.27;;;7.35;;
76712;SDS011;65640;43.154;25.658;2024-01-30T00:43:33;14.48;;;8.07;;
76712;SDS011;65640;43.154;25.658;2024-01-30T00:45:59;12.15;;;7.13;;
76712;SDS011;65640;43.154;25.658;2024-01-30T00:48:24;11.77;;;7.25;;
76712;SDS011;65640;43.154;25.658;2024-01-30T00:50:50;15.13;;;7.65;;
76712;SDS011;65640;43.154;25.658;2024-01-30T00:53:15;13.63;;;8.98;;
76712;SDS011;65640;43.154;25.658;2024-01-30T00:55:41;13.25;;;7.70;;
76712;SDS011;65640;43.154;25.658;2024-01-30T00:58:06;14.05;;;8.57;;
76712;SDS011;65640;43.154;25.658;2024-01-30T01:00:32;12.90;;;7.43;;
76712;SDS011;65640;43.154;25.658;2024-01-30T01:02:58;15.70;;;7.70;;
76712;SDS011;65640;43.154;25.658;2024-01-30T01:05:24;15.82;;;8.63;;
76712;SDS011;65640;43.154;25.658;2024-01-30T01:07:49;14.57;;;7.85;;
76712;SDS011;65640;43.154;25.658;2024-01-30T01:10:16;14.23;;;7.50;;
76712;SDS011;65640;43.154;25.658;2024-01-30T01:12:42;16.75;;;9.23;;
76712;SDS011;65640;43.154;25.658;2024-01-30T01:15:08;10.00;;;6.53;;
76712;SDS011;65640;43.154;25.658;2024-01-30T01:17:35;16.42;;;8.88;;
76712;SDS011;65640;43.154;25.658;2024-01-30T01:20:00;18.35;;;9.38;;
76712;SDS011;65640;43.154;25.658;2024-01-30T01:22:26;15.00;;;7.88;;
76712;SDS011;65640;43.154;25.658;2024-01-30T01:24:52;14.02;;;7.10;;
76712;SDS011;65640;43.154;25.658;2024-01-30T01:27:17;14.57;;;7.90;;
76712;SDS011;65640;43.154;25.658;2024-01-30T01:29:43;10.13;;;6.65;;
76712;SDS011;65640;43.154;25.658;2024-01-30T01:32:08;16.50;;;8.63;;
76712;SDS011;65640;43.154;25.658;2024-01-30T01:34:34;11.88;;;7.18;;
76712;SDS011;65640;43.154;25.658;2024-01-30T01:36:59;12.00;;;7.25;;
76712;SDS011;65640;43.154;25.658;2024-01-30T01:39:25;15.80;;;7.15;;
76712;SDS011;65640;43.154;25.658;2024-01-30T01:41:50;11.00;;;6.90;;
76712;SDS011;65640;43.154;25.658;2024-01-30T01:44:17;15.15;;;7.53;;
76712;SDS011;65640;43.154;25.658;2024-01-30T01:46:43;15.02;;;7.85;;
76712;SDS011;65640;43.154;25.658;2024-01-30T01:49:09;9.52;;;6.38;;
76712;SDS011;65640;43.154;25.658;2024-01-30T01:51:35;14.82;;;7.63;;
76712;SDS011;65640;43.154;25.658;2024-01-30T01:54:03;11.05;;;7.03;;
76712;SDS011;65640;43.154;25.658;2024-01-30T01:56:30;9.70;;;6.65;;
76712;SDS011;65640;43.154;25.658;2024-01-30T01:58:58;11.75;;;6.72;;
76712;SDS011;65640;43.154;25.658;2024-01-30T02:01:28;11.70;;;6.72;;
76712;SDS011;65640;43.154;25.658;2024-01-30T02:03:54;9.85;;;6.30;;
76712;SDS011;65640;43.154;25.658;2024-01-30T02:06:19;10.90;;;6.15;;
76712;SDS011;65640;43.154;25.658;2024-01-30T02:08:45;15.80;;;6.00;;
76712;SDS011;65640;43.154;25.658;2024-01-30T02:11:10;11.70;;;6.50;;
76712;SDS011;65640;43.154;25.658;2024-01-30T02:13:36;10.57;;;7.63;;
76712;SDS011;65640;43.154;25.658;2024-01-30T02:16:02;9.65;;;6.47;;
76712;SDS011;65640;43.154;25.658;2024-01-30T02:18:27;12.55;;;6.65;;
76712;SDS011;65640;43.154;25.658;2024-01-30T02:20:54;14.00;;;6.43;;
76712;SDS011;65640;43.154;25.658;2024-01-30T02:23:22;11.48;;;6.32;;
76712;SDS011;65640;43.154;25.658;2024-01-30T02:25:50;8.50;;;5.97;;
76712;SDS011;65640;43.154;25.658;2024-01-30T02:28:18;8.27;;;5.95;;
76712;SDS011;65640;43.154;25.658;2024-01-30T02:30:43;13.40;;;7.35;;
76712;SDS011;65640;43.154;25.658;2024-01-30T02:33:09;10.18;;;6.50;;
76712;SDS011;65640;43.154;25.658;2024-01-30T02:35:34;11.80;;;6.90;;
76712;SDS011;65640;43.154;25.658;2024-01-30T02:38:00;13.18;;;7.28;;
76712;SDS011;65640;43.154;25.658;2024-01-30T02:40:26;11.60;;;6.57;;
76712;SDS011;65640;43.154;25.658;2024-01-30T02:42:51;11.18;;;6.40;;
76712;SDS011;65640;43.154;25.658;2024-01-30T02:45:17;9.25;;;6.38;;
76712;SDS011;65640;43.154;25.658;2024-01-30T02:47:42;12.82;;;6.88;;
76712;SDS011;65640;43.154;25.658;2024-01-30T02:50:08;10.02;;;6.28;;
76712;SDS011;65640;43.154;25.658;2024-01-30T02:52:33;9.00;;;6.70;;
76712;SDS011;65640;43.154;25.658;2024-01-30T02:54:59;10.55;;;6.63;;
76712;SDS011;65640;43.154;25.658;2024-01-30T02:57:25;9.65;;;6.50;;
76712;SDS011;65640;43.154;25.658;2024-01-30T02:59:50;14.23;;;7.50;;
76712;SDS011;65640;43.154;25.658;2024-01-30T03:02:16;12.13;;;6.47;;
76712;SDS011;65640;43.154;25.658;2024-01-30T03:04:41;10.00;;;6.25;;
76712;SDS011;65640;43.154;25.658;2024-01-30T03:07:07;11.60;;;6.43;;
76712;SDS011;65640;43.154;25.658;2024-01-30T03:09:33;10.55;;;6.78;;
76712;SDS011;65640;43.154;25.658;2024-01-30T03:11:58;13.10;;;6.70;;
76712;SDS011;65640;43.154;25.658;2024-01-30T03:14:24;10.40;;;5.68;;
76712;SDS011;65640;43.154;25.658;2024-01-30T03:16:49;12.57;;;7.55;;
76712;SDS011;65640;43.154;25.658;2024-01-30T03:19:15;10.65;;;6.95;;
76712;SDS011;65640;43.154;25.658;2024-01-30T03:21:40;11.52;;;6.20;;
76712;SDS011;65640;43.154;25.658;2024-01-30T03:24:06;10.60;;;5.90;;
76712;SDS011;65640;43.154;25.658;2024-01-30T03:26:31;11.35;;;5.47;;
76712;SDS011;65640;43.154;25.658;2024-01-30T03:28:56;8.82;;;6.22;;
76712;SDS011;65640;43.154;25.658;2024-01-30T03:31:22;10.43;;;5.55;;
76712;SDS011;65640;43.154;25.658;2024-01-30T03:33:47;12.23;;;6.20;;
76712;SDS011;65640;43.154;25.658;2024-01-30T03:36:14;8.65;;;5.45;;
76712;SDS011;65640;43.154;25.658;2024-01-30T03:38:40;8.75;;;5.72;;
76712;SDS011;65640;43.154;25.658;2024-01-30T03:41:07;9.75;;;5.57;;
76712;SDS011;65640;43.154;25.658;2024-01-30T03:43:33;11.15;;;5.88;;
76712;SDS011;65640;43.154;25.658;2024-01-30T03:45:59;11.40;;;6.82;;
76712;SDS011;65640;43.154;25.658;2024-01-30T03:48:24;10.15;;;6.72;;
76712;SDS011;65640;43.154;25.658;2024-01-30T03:50:50;10.25;;;5.75;;
76712;SDS011;65640;43.154;25.658;2024-01-30T03:53:16;13.20;;;6.60;;
76712;SDS011;65640;43.154;25.658;2024-01-30T03:55:42;12.40;;;6.65;;
76712;SDS011;65640;43.154;25.658;2024-01-30T03:58:07;12.30;;;6.57;;
76712;SDS011;65640;43.154;25.658;2024-01-30T04:00:33;9.77;;;5.88;;
76712;SDS011;65640;43.154;25.658;2024-01-30T04:02:58;10.65;;;5.80;;
76712;SDS011;65640;43.154;25.658;2024-01-30T04:05:24;13.10;;;7.38;;
76712;SDS011;65640;43.154;25.658;2024-01-30T04:07:49;13.60;;;6.57;;
76712;SDS011;65640;43.154;25.658;2024-01-30T04:10:14;11.73;;;7.43;;
76712;SDS011;65640;43.154;25.658;2024-01-30T04:12:41;13.57;;;6.53;;
76712;SDS011;65640;43.154;25.658;2024-01-30T04:15:07;10.32;;;6.45;;
76712;SDS011;65640;43.154;25.658;2024-01-30T04:17:33;13.82;;;6.85;;
76712;SDS011;65640;43.154;25.658;2024-01-30T04:19:58;10.48;;;6.63;;
76712;SDS011;65640;43.154;25.658;2024-01-30T04:22:24;12.75;;;6.95;;
76712;SDS011;65640;43.154;25.658;2024-01-30T04:24:49;10.15;;;6.10;;
76712;SDS011;65640;43.154;25.658;2024-01-30T04:27:14;10.43;;;6.03;;
76712;SDS011;65640;43.154;25.658;2024-01-30T04:29:40;10.93;;;7.15;;
76712;SDS011;65640;43.154;25.658;2024-01-30T04:32:05;9.07;;;5.75;;
76712;SDS011;65640;43.154;25.658;2024-01-30T04:34:31;12.02;;;6.45;;
76712;SDS011;65640;43.154;25.658;2024-01-30T04:36:56;12.68;;;5.85;;
76712;SDS011;65640;43.154;25.658;2024-01-30T04:39:22;9.25;;;5.60;;
76712;SDS011;65640;43.154;25.658;2024-01-30T04:41:47;11.13;;;6.10;;
76712;SDS011;65640;43.154;25.658;2024-01-30T04:44:13;9.40;;;5.25;;
76712;SDS011;65640;43.154;25.658;2024-01-30T04:46:39;9.98;;;6.07;;
76712;SDS011;65640;43.154;25.658;2024-01-30T04:49:04;8.45;;;5.95;;
76712;SDS011;65640;43.154;25.658;2024-01-30T04:51:32;10.48;;;6.13;;
76712;SDS011;65640;43.154;25.658;2024-01-30T04:53:58;11.30;;;6.25;;
76712;SDS011;65640;43.154;25.658;2024-01-30T04:56:23;7.38;;;4.35;;
76712;SDS011;65640;43.154;25.658;2024-01-30T04:58:49;8.75;;;5.65;;
76712;SDS011;65640;43.154;25.658;2024-01-30T05:01:17;11.90;;;6.63;;
76712;SDS011;65640;43.154;25.658;2024-01-30T05:03:43;10.57;;;5.85;;
76712;SDS011;65640;43.154;25.658;2024-01-30T05:06:08;10.70;;;5.78;;
76712;SDS011;65640;43.154;25.658;2024-01-30T05:08:34;8.50;;;5.88;;
76712;SDS011;65640;43.154;25.658;2024-01-30T05:11:01;15.00;;;6.82;;
76712;SDS011;65640;43.154;25.658;2024-01-30T05:13:30;11.32;;;6.97;;
76712;SDS011;65640;43.154;25.658;2024-01-30T05:15:55;13.88;;;7.25;;
76712;SDS011;65640;43.154;25.658;2024-01-30T05:18:21;13.70;;;7.45;;
76712;SDS011;65640;43.154;25.658;2024-01-30T05:20:46;18.10;;;7.35;;
76712;SDS011;65640;43.154;25.658;2024-01-30T05:23:12;16.10;;;7.20;;
76712;SDS011;65640;43.154;25.658;2024-01-30T05:25:37;12.13;;;6.93;;
76712;SDS011;65640;43.154;25.658;2024-01-30T05:28:02;13.20;;;7.63;;
76712;SDS011;65640;43.154;25.658;2024-01-30T05:30:28;17.55;;;8.52;;
76712;SDS011;65640;43.154;25.658;2024-01-30T05:32:53;15.38;;;8.55;;
76712;SDS011;65640;43.154;25.658;2024-01-30T05:35:19;17.65;;;9.23;;
76712;SDS011;65640;43.154;25.658;2024-01-30T05:37:47;15.48;;;8.00;;
76712;SDS011;65640;43.154;25.658;2024-01-30T05:40:13;13.43;;;7.30;;
76712;SDS011;65640;43.154;25.658;2024-01-30T05:42:39;15.73;;;8.27;;
76712;SDS011;65640;43.154;25.658;2024-01-30T05:45:04;16.65;;;7.68;;
76712;SDS011;65640;43.154;25.658;2024-01-30T05:47:30;9.13;;;6.43;;
76712;SDS011;65640;43.154;25.658;2024-01-30T05:49:56;16.50;;;7.38;;
76712;SDS011;65640;43.154;25.658;2024-01-30T05:52:21;22.50;;;9.02;;
76712;SDS011;65640;43.154;25.658;2024-01-30T05:54:47;17.42;;;9.32;;
76712;SDS011;65640;43.154;25.658;2024-01-30T05:57:12;18.25;;;8.98;;
76712;SDS011;65640;43.154;25.658;2024-01-30T05:59:37;16.35;;;9.32;;
76712;SDS011;65640;43.154;25.658;2024-01-30T06:02:03;15.02;;;8.20;;
76712;SDS011;65640;43.154;25.658;2024-01-30T06:04:28;12.80;;;7.10;;
76712;SDS011;65640;43.154;25.658;2024-01-30T06:06:54;12.73;;;6.80;;
76712;SDS011;65640;43.154;25.658;2024-01-30T06:09:19;14.70;;;6.40;;
76712;SDS011;65640;43.154;25.658;2024-01-30T06:11:44;9.27;;;5.88;;
76712;SDS011;65640;43.154;25.658;2024-01-30T06:14:10;12.55;;;6.85;;
76712;SDS011;65640;43.154;25.658;2024-01-30T06:16:35;11.43;;;6.30;;
76712;SDS011;65640;43.154;25.658;2024-01-30T06:19:01;10.57;;;6.57;;
76712;SDS011;65640;43.154;25.658;2024-01-30T06:21:26;13.73;;;7.45;;
76712;SDS011;65640;43.154;25.658;2024-01-30T06:23:52;12.50;;;6.68;;
76712;SDS011;65640;43.154;25.658;2024-01-30T06:26:17;11.10;;;6.95;;
76712;SDS011;65640;43.154;25.658;2024-01-30T06:28:42;11.48;;;6.30;;
76712;SDS011;65640;43.154;25.658;2024-01-30T06:31:09;8.90;;;6.10;;
76712;SDS011;65640;43.154;25.658;2024-01-30T06:33:35;7.57;;;5.35;;
76712;SDS011;65640;43.154;25.658;2024-01-30T06:36:00;8.38;;;5.85;;
76712;SDS011;65640;43.154;25.658;2024-01-30T06:38:25;12.27;;;6.35;;
76712;SDS011;65640;43.154;25.658;2024-01-30T06:40:51;9.63;;;6.22;;
76712;SDS011;65640;43.154;25.658;2024-01-30T06:43:16;9.95;;;6.70;;
76712;SDS011;65640;43.154;25.658;2024-01-30T06:45:42;13.18;;;7.75;;
76712;SDS011;65640;43.154;25.658;2024-01-30T06:48:08;12.50;;;6.68;;
76712;SDS011;65640;43.154;25.658;2024-01-30T06:50:33;11.57;;;7.40;;
76712;SDS011;65640;43.154;25.658;2024-01-30T06:52:59;13.18;;;7.80;;
76712;SDS011;65640;43.154;25.658;2024-01-30T06:55:24;11.60;;;6.82;;
76712;SDS011;65640;43.154;25.658;2024-01-30T06:57:49;15.27;;;7.93;;
76712;SDS011;65640;43.154;25.658;2024-01-30T07:00:15;11.68;;;6.10;;
76712;SDS011;65640;43.154;25.658;2024-01-30T07:02:41;10.43;;;6.82;;
76712;SDS011;65640;43.154;25.658;2024-01-30T07:05:06;8.63;;;5.90;;
76712;SDS011;65640;43.154;25.658;2024-01-30T07:07:32;16.02;;;6.45;;
76712;SDS011;65640;43.154;25.658;2024-01-30T07:09:58;13.52;;;6.35;;
76712;SDS011;65640;43.154;25.658;2024-01-30T07:12:23;17.73;;;7.80;;
76712;SDS011;65640;43.154;25.658;2024-01-30T07:17:16;17.85;;;7.53;;
76712;SDS011;65640;43.154;25.658;2024-01-30T07:19:41;13.50;;;7.70;;
76712;SDS011;65640;43.154;25.658;2024-01-30T07:22:07;18.50;;;7.75;;
76712;SDS011;65640;43.154;25.658;2024-01-30T07:24:33;15.15;;;6.95;;
76712;SDS011;65640;43.154;25.658;2024-01-30T07:26:58;14.55;;;6.57;;
76712;SDS011;65640;43.154;25.658;2024-01-30T07:29:23;10.73;;;6.28;;
76712;SDS011;65640;43.154;25.658;2024-01-30T07:31:49;10.02;;;5.47;;
76712;SDS011;65640;43.154;25.658;2024-01-30T07:34:14;9.05;;;5.82;;
76712;SDS011;65640;43.154;25.658;2024-01-30T07:36:40;8.43;;;5.68;;
76712;SDS011;65640;43.154;25.658;2024-01-30T07:39:05;13.00;;;6.65;;
76712;SDS011;65640;43.154;25.658;2024-01-30T07:41:31;9.27;;;5.90;;
76712;SDS011;65640;43.154;25.658;2024-01-30T07:43:56;7.05;;;5.18;;
76712;SDS011;65640;43.154;25.658;2024-01-30T07:46:22;10.15;;;6.57;;
76712;SDS011;65640;43.154;25.658;2024-01-30T07:48:47;12.80;;;6.70;;
76712;SDS011;65640;43.154;25.658;2024-01-30T07:51:12;10.60;;;6.63;;
76712;SDS011;65640;43.154;25.658;2024-01-30T07:53:38;13.68;;;6.88;;
76712;SDS011;65640;43.154;25.658;2024-01-30T07:56:03;11.60;;;6.68;;
76712;SDS011;65640;43.154;25.658;2024-01-30T07:58:30;9.38;;;5.68;;
76712;SDS011;65640;43.154;25.658;2024-01-30T08:00:55;8.02;;;5.18;;
76712;SDS011;65640;43.154;25.658;2024-01-30T08:03:23;8.80;;;6.18;;
76712;SDS011;65640;43.154;25.658;2024-01-30T08:05:49;9.65;;;5.80;;
76712;SDS011;65640;43.154;25.658;2024-01-30T08:08:14;10.85;;;5.35;;
76712;SDS011;65640;43.154;25.658;2024-01-30T08:10:40;8.45;;;5.28;;
76712;SDS011;65640;43.154;25.658;2024-01-30T08:13:05;8.63;;;5.60;;
76712;SDS011;65640;43.154;25.658;2024-01-30T08:15:31;9.00;;;5.47;;
76712;SDS011;65640;43.154;25.658;2024-01-30T08:17:56;9.00;;;5.97;;
76712;SDS011;65640;43.154;25.658;2024-01-30T08:20:25;7.72;;;5.57;;
76712;SDS011;65640;43.154;25.658;2024-01-30T08:22:51;11.32;;;6.40;;
76712;SDS011;65640;43.154;25.658;2024-01-30T08:25:17;9.32;;;5.43;;
76712;SDS011;65640;43.154;25.658;2024-01-30T08:27:42;10.30;;;6.13;;
76712;SDS011;65640;43.154;25.658;2024-01-30T08:30:08;10.18;;;5.97;;
76712;SDS011;65640;43.154;25.658;2024-01-30T08:32:34;10.30;;;6.53;;
76712;SDS011;65640;43.154;25.658;2024-01-30T08:35:00;7.25;;;5.05;;
76712;SDS011;65640;43.154;25.658;2024-01-30T08:37:28;10.95;;;6.47;;
76712;SDS011;65640;43.154;25.658;2024-01-30T08:39:54;7.80;;;5.38;;
76712;SDS011;65640;43.154;25.658;2024-01-30T08:42:20;9.00;;;6.05;;
76712;SDS011;65640;43.154;25.658;2024-01-30T08:44:47;8.80;;;5.93;;
76712;SDS011;65640;43.154;25.658;2024-01-30T08:47:14;9.40;;;4.82;;
76712;SDS011;65640;43.154;25.658;2024-01-30T08:49:41;8.63;;;5.70;;
76712;SDS011;65640;43.154;25.658;2024-01-30T08:52:09;6.15;;;4.93;;
76712;SDS011;65640;43.154;25.658;2024-01-30T08:54:34;11.05;;;6.43;;
76712;SDS011;65640;43.154;25.658;2024-01-30T08:57:00;8.50;;;5.30;;
76712;SDS011;65640;43.154;25.658;2024-01-30T08:59:25;11.02;;;5.85;;
76712;SDS011;65640;43.154;25.658;2024-01-30T09:01:51;8.95;;;6.13;;
76712;SDS011;65640;43.154;25.658;2024-01-30T09:04:19;9.48;;;6.50;;
76712;SDS011;65640;43.154;25.658;2024-01-30T09:06:45;7.03;;;5.40;;
76712;SDS011;65640;43.154;25.658;2024-01-30T09:09:10;9.68;;;7.00;;
76712;SDS011;65640;43.154;25.658;2024-01-30T09:11:36;6.55;;;3.92;;
76712;SDS011;65640;43.154;25.658;2024-01-30T09:14:01;12.98;;;6.95;;
76712;SDS011;65640;43.154;25.658;2024-01-30T09:16:27;14.43;;;6.50;;
76712;SDS011;65640;43.154;25.658;2024-01-30T09:18:52;11.77;;;6.70;;
76712;SDS011;65640;43.154;25.658;2024-01-30T09:21:17;11.75;;;6.57;;
76712;SDS011;65640;43.154;25.658;2024-01-30T09:23:43;9.60;;;5.78;;
76712;SDS011;65640;43.154;25.658;2024-01-30T09:26:08;7.93;;;5.07;;
76712;SDS011;65640;43.154;25.658;2024-01-30T09:28:34;8.90;;;5.97;;
76712;SDS011;65640;43.154;25.658;2024-01-30T09:30:59;11.98;;;6.72;;
76712;SDS011;65640;43.154;25.658;2024-01-30T09:33:25;10.52;;;6.00;;
76712;SDS011;65640;43.154;25.658;2024-01-30T09:35:50;8.50;;;6.25;;
76712;SDS011;65640;43.154;25.658;2024-01-30T09:38:16;11.02;;;5.07;;
76712;SDS011;65640;43.154;25.658;2024-01-30T09:40:41;7.88;;;5.50;;
76712;SDS011;65640;43.154;25.658;2024-01-30T09:43:07;8.07;;;5.88;;
76712;SDS011;65640;43.154;25.658;2024-01-30T09:45:32;8.48;;;5.82;;
76712;SDS011;65640;43.154;25.658;2024-01-30T09:47:59;11.05;;;5.80;;
76712;SDS011;65640;43.154;25.658;2024-01-30T09:50:25;8.40;;;5.28;;
76712;SDS011;65640;43.154;25.658;2024-01-30T09:52:51;7.50;;;5.05;;
76712;SDS011;65640;43.154;25.658;2024-01-30T09:55:20;8.02;;;5.18;;
76712;SDS011;65640;43.154;25.658;2024-01-30T09:57:45;10.93;;;6.72;;
76712;SDS011;65640;43.154;25.658;2024-01-30T10:00:12;9.60;;;5.72;;
76712;SDS011;65640;43.154;25.658;2024-01-30T10:02:38;10.18;;;5.97;;
76712;SDS011;65640;43.154;25.658;2024-01-30T10:05:04;8.95;;;6.13;;
76712;SDS011;65640;43.154;25.658;2024-01-30T10:07:30;11.15;;;6.28;;
76712;SDS011;65640;43.154;25.658;2024-01-30T10:09:56;11.23;;;6.88;;
76712;SDS011;65640;43.154;25.658;2024-01-30T10:12:21;7.35;;;5.35;;
76712;SDS011;65640;43.154;25.658;2024-01-30T10:14:47;7.40;;;4.68;;
76712;SDS011;65640;43.154;25.658;2024-01-30T10:17:13;7.95;;;5.40;;
76712;SDS011;65640;43.154;25.658;2024-01-30T10:19:39;8.63;;;5.05;;
76712;SDS011;65640;43.154;25.658;2024-01-30T10:22:05;9.98;;;5.00;;
76712;SDS011;65640;43.154;25.658;2024-01-30T10:24:31;10.00;;;5.43;;
76712;SDS011;65640;43.154;25.658;2024-01-30T10:26:58;7.35;;;5.03;;
76712;SDS011;65640;43.154;25.658;2024-01-30T10:29:24;8.15;;;5.35;;
76712;SDS011;65640;43.154;25.658;2024-01-30T10:32:02;5.65;;;4.63;;
76712;SDS011;65640;43.154;25.658;2024-01-30T10:34:29;8.48;;;5.50;;
76712;SDS011;65640;43.154;25.658;2024-01-30T10:37:07;11.80;;;6.15;;
76712;SDS011;65640;43.154;25.658;2024-01-30T10:39:45;10.50;;;4.93;;
76712;SDS011;65640;43.154;25.658;2024-01-30T10:42:11;9.70;;;5.43;;
76712;SDS011;65640;43.154;25.658;2024-01-30T10:44:48;7.25;;;5.15;;
76712;SDS011;65640;43.154;25.658;2024-01-30T10:47:21;8.75;;;5.25;;
76712;SDS011;65640;43.154;25.658;2024-01-30T10:49:52;7.43;;;5.55;;
76712;SDS011;65640;43.154;25.658;2024-01-30T10:52:18;6.68;;;4.90;;
76712;SDS011;65640;43.154;25.658;2024-01-30T10:57:11;7.30;;;4.55;;
76712;SDS011;65640;43.154;25.658;2024-01-30T10:59:37;8.27;;;5.47;;
76712;SDS011;65640;43.154;25.658;2024-01-30T11:02:04;8.57;;;5.50;;
76712;SDS011;65640;43.154;25.658;2024-01-30T11:04:37;9.35;;;5.75;;
76712;SDS011;65640;43.154;25.658;2024-01-30T11:07:13;6.22;;;4.63;;
76712;SDS011;65640;43.154;25.658;2024-01-30T11:09:40;8.48;;;5.82;;
76712;SDS011;65640;43.154;25.658;2024-01-30T11:12:11;9.30;;;5.53;;
76712;SDS011;65640;43.154;25.658;2024-01-30T11:14:37;7.85;;;5.18;;
76712;SDS011;65640;43.154;25.658;2024-01-30T11:17:05;6.68;;;5.38;;
76712;SDS011;65640;43.154;25.658;2024-01-30T11:19:31;8.52;;;5.05;;
76712;SDS011;65640;43.154;25.658;2024-01-30T11:21:57;8.35;;;4.97;;
76712;SDS011;65640;43.154;25.658;2024-01-30T11:24:23;9.50;;;6.00;;
76712;SDS011;65640;43.154;25.658;2024-01-30T11:26:49;8.18;;;6.25;;
76712;SDS011;65640;43.154;25.658;2024-01-30T11:29:24;8.38;;;5.10;;
76712;SDS011;65640;43.154;25.658;2024-01-30T11:31:57;8.05;;;5.45;;
76712;SDS011;65640;43.154;25.658;2024-01-30T11:34:23;7.80;;;4.68;;
76712;SDS011;65640;43.154;25.658;2024-01-30T11:36:54;8.05;;;4.68;;
76712;SDS011;65640;43.154;25.658;2024-01-30T11:39:28;6.47;;;5.05;;
76712;SDS011;65640;43.154;25.658;2024-01-30T11:41:54;7.07;;;5.45;;
76712;SDS011;65640;43.154;25.658;2024-01-30T11:44:21;6.40;;;4.95;;
76712;SDS011;65640;43.154;25.658;2024-01-30T11:46:47;5.95;;;3.92;;
76712;SDS011;65640;43.154;25.658;2024-01-30T11:49:13;10.57;;;5.55;;
76712;SDS011;65640;43.154;25.658;2024-01-30T11:51:39;12.57;;;4.97;;
76712;SDS011;65640;43.154;25.658;2024-01-30T11:54:04;6.25;;;5.00;;
76712;SDS011;65640;43.154;25.658;2024-01-30T11:56:30;6.15;;;4.95;;
76712;SDS011;65640;43.154;25.658;2024-01-30T11:58:55;7.40;;;5.38;;
76712;SDS011;65640;43.154;25.658;2024-01-30T12:01:21;5.47;;;4.30;;
76712;SDS011;65640;43.154;25.658;2024-01-30T12:03:50;6.00;;;4.57;;
76712;SDS011;65640;43.154;25.658;2024-01-30T12:06:16;11.32;;;5.38;;
76712;SDS011;65640;43.154;25.658;2024-01-30T12:08:41;7.93;;;5.50;;
76712;SDS011;65640;43.154;25.658;2024-01-30T12:11:09;8.23;;;4.55;;
76712;SDS011;65640;43.154;25.658;2024-01-30T12:13:35;9.48;;;5.35;;
76712;SDS011;65640;43.154;25.658;2024-01-30T12:16:00;4.75;;;4.35;;
76712;SDS011;65640;43.154;25.658;2024-01-30T12:18:26;8.63;;;5.57;;
76712;SDS011;65640;43.154;25.658;2024-01-30T12:21:00;8.10;;;5.35;;
76712;SDS011;65640;43.154;25.658;2024-01-30T12:23:29;13.05;;;6.60;;
76712;SDS011;65640;43.154;25.658;2024-01-30T12:25:54;12.30;;;6.22;;
76712;SDS011;65640;43.154;25.658;2024-01-30T12:28:20;7.20;;;5.38;;
76712;SDS011;65640;43.154;25.658;2024-01-30T12:30:46;7.93;;;6.43;;
76712;SDS011;65640;43.154;25.658;2024-01-30T12:33:17;8.32;;;6.15;;
76712;SDS011;65640;43.154;25.658;2024-01-30T12:35:46;8.55;;;5.57;;
76712;SDS011;65640;43.154;25.658;2024-01-30T12:38:13;15.00;;;5.97;;
76712;SDS011;65640;43.154;25.658;2024-01-30T12:40:39;9.13;;;6.47;;
76712;SDS011;65640;43.154;25.658;2024-01-30T12:43:04;8.02;;;5.35;;
76712;SDS011;65640;43.154;25.658;2024-01-30T12:45:30;5.70;;;4.75;;
76712;SDS011;65640;43.154;25.658;2024-01-30T12:47:55;6.00;;;4.38;;
76712;SDS011;65640;43.154;25.658;2024-01-30T12:50:21;7.68;;;4.35;;
76712;SDS011;65640;43.154;25.658;2024-01-30T12:52:47;7.10;;;4.70;;
76712;SDS011;65640;43.154;25.658;2024-01-30T12:55:13;5.55;;;4.47;;
76712;SDS011;65640;43.154;25.658;2024-01-30T12:57:39;12.48;;;4.75;;
76712;SDS011;65640;43.154;25.658;2024-01-30T13:00:04;7.78;;;5.18;;
76712;SDS011;65640;43.154;25.658;2024-01-30T13:02:33;7.45;;;5.07;;
76712;SDS011;65640;43.154;25.658;2024-01-30T13:05:02;10.50;;;6.78;;
76712;SDS011;65640;43.154;25.658;2024-01-30T13:07:29;7.85;;;3.90;;
76712;SDS011;65640;43.154;25.658;2024-01-30T13:09:54;14.75;;;8.25;;
76712;SDS011;65640;43.154;25.658;2024-01-30T13:12:19;8.88;;;5.22;;
76712;SDS011;65640;43.154;25.658;2024-01-30T13:14:45;20.88;;;5.65;;
76712;SDS011;65640;43.154;25.658;2024-01-30T13:17:10;4.93;;;3.67;;
76712;SDS011;65640;43.154;25.658;2024-01-30T13:19:36;10.93;;;6.63;;
76712;SDS011;65640;43.154;25.658;2024-01-30T13:22:01;6.82;;;4.60;;
76712;SDS011;65640;43.154;25.658;2024-01-30T13:24:26;7.82;;;5.20;;
76712;SDS011;65640;43.154;25.658;2024-01-30T13:26:52;3.90;;;3.25;;
76712;SDS011;65640;43.154;25.658;2024-01-30T13:29:18;7.55;;;4.75;;
76712;SDS011;65640;43.154;25.658;2024-01-30T13:31:44;21.13;;;7.80;;
76712;SDS011;65640;43.154;25.658;2024-01-30T13:34:11;17.80;;;7.88;;
76712;SDS011;65640;43.154;25.658;2024-01-30T13:36:37;16.98;;;7.63;;
76712;SDS011;65640;43.154;25.658;2024-01-30T13:39:03;6.45;;;4.07;;
76712;SDS011;65640;43.154;25.658;2024-01-30T13:41:32;10.75;;;5.40;;
76712;SDS011;65640;43.154;25.658;2024-01-30T13:43:57;7.03;;;5.07;;
76712;SDS011;65640;43.154;25.658;2024-01-30T13:46:23;7.30;;;4.68;;
76712;SDS011;65640;43.154;25.658;2024-01-30T13:48:48;10.20;;;6.70;;
76712;SDS011;65640;43.154;25.658;2024-01-30T13:51:14;5.55;;;4.45;;
76712;SDS011;65640;43.154;25.658;2024-01-30T13:53:41;5.88;;;4.72;;
76712;SDS011;65640;43.154;25.658;2024-01-30T13:56:07;6.65;;;4.40;;
76712;SDS011;65640;43.154;25.658;2024-01-30T13:58:32;26.42;;;8.82;;
76712;SDS011;65640;43.154;25.658;2024-01-30T14:00:58;11.23;;;6.40;;
76712;SDS011;65640;43.154;25.658;2024-01-30T14:03:24;12.80;;;6.30;;
76712;SDS011;65640;43.154;25.658;2024-01-30T14:05:49;5.82;;;4.20;;
76712;SDS011;65640;43.154;25.658;2024-01-30T14:08:15;6.25;;;3.88;;
76712;SDS011;65640;43.154;25.658;2024-01-30T14:10:40;6.97;;;5.35;;
76712;SDS011;65640;43.154;25.658;2024-01-30T14:13:06;7.68;;;4.43;;
76712;SDS011;65640;43.154;25.658;2024-01-30T14:15:31;7.07;;;4.85;;
76712;SDS011;65640;43.154;25.658;2024-01-30T14:17:56;9.63;;;5.95;;
76712;SDS011;65640;43.154;25.658;2024-01-30T14:20:22;9.82;;;5.57;;
76712;SDS011;65640;43.154;25.658;2024-01-30T14:22:48;8.70;;;5.72;;
76712;SDS011;65640;43.154;25.658;2024-01-30T14:25:13;9.65;;;5.00;;